createdAt,value
2022-07-27T00:01:08.904Z,4.00
2022-07-27T00:03:37.060Z,2.45
2022-07-27T00:06:04.235Z,4.75
2022-07-27T00:08:31.288Z,3.25
2022-07-27T00:10:58.532Z,3.08
2022-07-27T00:13:26.430Z,3.90
2022-07-27T00:15:53.595Z,4.63
2022-07-27T00:18:20.915Z,3.40
2022-07-27T00:20:47.966Z,6.80
2022-07-27T00:23:15.017Z,7.25
2022-07-27T00:25:42.302Z,5.53
2022-07-27T00:28:09.411Z,5.57
2022-07-27T00:30:36.469Z,5.00
2022-07-27T00:33:05.580Z,2.75
2022-07-27T00:35:32.864Z,6.47
2022-07-27T00:38:01.387Z,6.22
2022-07-27T00:40:28.877Z,6.65
2022-07-27T00:42:55.915Z,4.47
2022-07-27T00:45:23.082Z,6.47
2022-07-27T00:47:54.780Z,4.13
2022-07-27T00:50:22.253Z,3.08
2022-07-27T00:52:49.920Z,5.07
2022-07-27T00:55:17.425Z,6.00
2022-07-27T00:57:59.165Z,4.47
2022-07-27T01:00:29.618Z,5.22
2022-07-27T01:02:57.140Z,5.18
2022-07-27T01:05:26.567Z,3.17
2022-07-27T01:08:06.879Z,5.78
2022-07-27T01:10:34.419Z,5.75
2022-07-27T01:13:04.042Z,8.77
2022-07-27T01:15:35.424Z,4.90
2022-07-27T01:18:10.344Z,3.03
2022-07-27T01:20:37.660Z,5.07
2022-07-27T01:23:04.726Z,4.18
2022-07-27T01:25:31.745Z,4.00
2022-07-27T01:27:58.992Z,2.80
2022-07-27T01:30:30.433Z,5.07
2022-07-27T01:33:05.683Z,4.38
2022-07-27T01:35:33.976Z,3.65
2022-07-27T01:38:01.255Z,7.82
2022-07-27T01:40:28.455Z,9.52
2022-07-27T01:42:55.654Z,11.00
2022-07-27T01:45:23.100Z,9.27
2022-07-27T01:47:50.167Z,6.07
2022-07-27T01:50:17.416Z,7.57
2022-07-27T01:52:44.401Z,5.05
2022-07-27T01:55:12.190Z,7.35
2022-07-27T01:57:39.721Z,9.23
2022-07-27T02:00:11.114Z,6.78
2022-07-27T02:02:41.738Z,12.73
2022-07-27T02:05:12.650Z,13.02
2022-07-27T02:07:42.792Z,11.77
2022-07-27T02:10:10.795Z,10.45
2022-07-27T02:12:38.705Z,11.43
2022-07-27T02:15:07.427Z,9.82
2022-07-27T02:17:35.610Z,7.28
2022-07-27T02:20:04.026Z,8.07
2022-07-27T02:22:31.422Z,10.48
2022-07-27T02:24:58.807Z,10.15
2022-07-27T02:27:25.919Z,11.30
2022-07-27T02:29:53.450Z,8.55
2022-07-27T02:32:21.373Z,6.95
2022-07-27T02:34:48.446Z,11.00
2022-07-27T02:37:15.551Z,8.77
2022-07-27T02:39:43.610Z,8.80
2022-07-27T02:42:10.630Z,8.32
2022-07-27T02:44:37.628Z,7.60
2022-07-27T02:47:05.074Z,4.78
2022-07-27T02:49:32.481Z,5.43
2022-07-27T02:52:00.157Z,5.25
2022-07-27T02:54:27.863Z,7.55
2022-07-27T02:56:56.411Z,4.63
2022-07-27T02:59:23.695Z,4.38
2022-07-27T03:01:51.299Z,6.75
2022-07-27T03:04:19.336Z,6.53
2022-07-27T03:06:46.801Z,2.80
2022-07-27T03:09:14.502Z,6.70
2022-07-27T03:11:41.890Z,2.80
2022-07-27T03:14:08.936Z,4.25
2022-07-27T03:16:36.204Z,4.65
2022-07-27T03:19:03.550Z,5.35
2022-07-27T03:21:30.623Z,2.33
2022-07-27T03:23:57.933Z,11.68
2022-07-27T03:26:24.989Z,4.60
2022-07-27T03:28:52.103Z,6.30
2022-07-27T03:31:19.448Z,4.60
2022-07-27T03:33:46.626Z,6.97
2022-07-27T03:36:13.790Z,4.72
2022-07-27T03:38:41.016Z,5.10
2022-07-27T03:41:08.084Z,3.95
2022-07-27T03:43:35.331Z,5.90
2022-07-27T03:46:02.723Z,3.17
2022-07-27T03:48:29.881Z,4.47
2022-07-27T03:50:57.005Z,5.70
2022-07-27T03:53:24.231Z,5.80
2022-07-27T03:55:51.668Z,3.85
2022-07-27T03:58:18.845Z,6.70
2022-07-27T04:00:46.162Z,5.80
2022-07-27T04:03:13.300Z,4.35
2022-07-27T04:05:40.313Z,3.47
2022-07-27T04:08:07.657Z,5.88
2022-07-27T04:10:34.692Z,2.63
2022-07-27T04:13:01.794Z,7.22
2022-07-27T04:15:30.800Z,4.00
2022-07-27T04:17:58.008Z,5.88
2022-07-27T04:20:25.609Z,4.03
2022-07-27T04:22:53.062Z,5.55
2022-07-27T04:25:20.088Z,9.85
2022-07-27T04:27:47.223Z,5.00
2022-07-27T04:30:14.612Z,9.00
2022-07-27T04:32:41.836Z,12.07
2022-07-27T04:35:09.443Z,3.92
2022-07-27T04:37:36.708Z,8.65
2022-07-27T04:40:04.295Z,6.88
2022-07-27T04:42:31.379Z,3.80
2022-07-27T04:44:59.775Z,7.82
2022-07-27T04:47:26.839Z,6.47
2022-07-27T04:49:53.918Z,5.75
2022-07-27T04:52:26.492Z,5.25
2022-07-27T04:54:56.132Z,6.25
2022-07-27T04:57:23.434Z,7.57
2022-07-27T04:59:50.559Z,5.80
2022-07-27T05:02:17.730Z,5.05
2022-07-27T05:04:44.995Z,6.80
2022-07-27T05:07:12.001Z,3.33
2022-07-27T05:09:39.074Z,7.00
2022-07-27T05:12:06.519Z,4.13
2022-07-27T05:14:33.590Z,3.80
2022-07-27T05:17:00.661Z,3.78
2022-07-27T05:19:40.300Z,4.03
2022-07-27T05:22:08.702Z,3.50
2022-07-27T05:24:36.106Z,3.95
2022-07-27T05:27:03.267Z,5.22
2022-07-27T05:29:30.348Z,4.78
2022-07-27T05:31:57.684Z,5.05
2022-07-27T05:34:24.815Z,6.30
2022-07-27T05:36:51.955Z,4.00
2022-07-27T05:39:20.684Z,7.22
2022-07-27T05:41:48.954Z,8.10
2022-07-27T05:44:16.871Z,8.90
2022-07-27T05:46:44.588Z,3.83
2022-07-27T05:49:13.149Z,4.10
2022-07-27T05:51:40.567Z,4.13
2022-07-27T05:54:08.139Z,4.25
2022-07-27T05:56:35.641Z,4.00
2022-07-27T05:59:07.086Z,4.18
2022-07-27T06:01:34.915Z,4.00
2022-07-27T06:04:02.182Z,7.63
2022-07-27T06:06:47.914Z,3.83
2022-07-27T06:09:15.651Z,5.30
2022-07-27T06:11:43.073Z,5.07
2022-07-27T06:14:10.089Z,7.82
2022-07-27T06:16:37.484Z,4.30
2022-07-27T06:19:06.076Z,5.35
2022-07-27T06:21:33.094Z,4.40
2022-07-27T06:24:00.374Z,5.65
2022-07-27T06:26:27.518Z,5.20
2022-07-27T06:28:58.833Z,4.18
2022-07-27T06:31:27.409Z,4.75
2022-07-27T06:33:57.707Z,5.25
2022-07-27T06:36:29.531Z,5.53
2022-07-27T06:38:56.545Z,4.85
2022-07-27T06:41:26.588Z,4.72
2022-07-27T06:43:53.883Z,3.33
2022-07-27T06:46:20.912Z,4.22
2022-07-27T06:48:48.006Z,6.15
2022-07-27T06:51:15.364Z,6.32
2022-07-27T06:53:42.469Z,4.03
2022-07-27T06:56:09.579Z,4.47
2022-07-27T06:58:40.500Z,5.32
2022-07-27T07:01:07.648Z,6.68
2022-07-27T07:03:34.772Z,4.15
2022-07-27T07:06:02.419Z,8.18
2022-07-27T07:08:29.505Z,5.93
2022-07-27T07:10:56.751Z,6.57
2022-07-27T07:13:25.156Z,4.20
2022-07-27T07:15:52.254Z,7.40
2022-07-27T07:18:19.397Z,4.03
2022-07-27T07:20:46.682Z,8.98
2022-07-27T07:23:13.815Z,5.60
2022-07-27T07:25:41.849Z,6.90
2022-07-27T07:28:09.200Z,7.57
2022-07-27T07:30:36.627Z,5.90
2022-07-27T07:33:04.307Z,5.30
2022-07-27T07:35:32.023Z,4.57
2022-07-27T07:37:59.175Z,11.50
2022-07-27T07:40:43.257Z,6.13
2022-07-27T07:43:13.043Z,4.57
2022-07-27T07:45:50.268Z,4.53
2022-07-27T07:48:19.945Z,8.15
2022-07-27T07:50:51.860Z,6.80
2022-07-27T07:53:21.248Z,5.57
2022-07-27T07:55:48.570Z,4.10
2022-07-27T07:58:15.624Z,6.03
2022-07-27T08:00:44.084Z,6.53
2022-07-27T08:03:11.344Z,4.40
2022-07-27T08:05:38.553Z,6.32
2022-07-27T08:08:05.911Z,6.28
2022-07-27T08:10:33.340Z,6.55
2022-07-27T08:13:00.528Z,5.40
2022-07-27T08:15:35.682Z,5.32
2022-07-27T08:18:06.482Z,5.25
2022-07-27T08:20:34.904Z,7.70
2022-07-27T08:23:02.160Z,4.85
2022-07-27T08:25:29.880Z,8.25
2022-07-27T08:27:58.198Z,4.18
2022-07-27T08:30:25.694Z,37.13
2022-07-27T08:32:58.315Z,8.52
2022-07-27T08:35:26.459Z,5.15
2022-07-27T08:37:53.942Z,2.67
2022-07-27T08:40:39.829Z,5.55
2022-07-27T08:43:08.880Z,5.80
2022-07-27T08:45:37.379Z,4.75
2022-07-27T08:48:05.259Z,6.53
2022-07-27T08:50:34.841Z,6.85
2022-07-27T08:53:07.038Z,9.68
2022-07-27T08:55:38.010Z,8.60
2022-07-27T08:58:06.742Z,6.85
2022-07-27T09:00:35.962Z,5.50
2022-07-27T09:03:04.702Z,6.22
2022-07-27T09:05:37.313Z,7.25
2022-07-27T09:08:16.896Z,6.47
2022-07-27T09:10:44.727Z,6.60
2022-07-27T09:13:26.765Z,6.05
2022-07-27T09:18:47.699Z,7.05
2022-07-27T09:21:24.439Z,5.95
2022-07-27T09:24:13.455Z,3.95
2022-07-27T09:27:02.729Z,7.28
2022-07-27T09:29:35.382Z,6.80
2022-07-27T09:32:17.014Z,7.68
2022-07-27T09:34:44.977Z,4.30
2022-07-27T09:37:17.719Z,5.78
2022-07-27T09:39:46.539Z,7.40
2022-07-27T09:42:59.284Z,9.13
2022-07-27T09:45:33.831Z,8.00
2022-07-27T09:48:16.664Z,6.22
2022-07-27T09:51:02.708Z,11.68
2022-07-27T09:53:43.860Z,10.93
2022-07-27T09:56:13.527Z,8.45
2022-07-27T09:58:46.744Z,9.10
2022-07-27T10:01:23.043Z,8.43
2022-07-27T10:03:53.119Z,7.75
2022-07-27T10:06:20.198Z,9.68
2022-07-27T10:08:49.049Z,9.40
2022-07-27T10:11:17.701Z,12.55
2022-07-27T10:13:44.742Z,11.70
2022-07-27T10:16:16.068Z,9.65
2022-07-27T10:19:03.305Z,7.60
2022-07-27T10:21:38.437Z,8.32
2022-07-27T10:24:12.689Z,5.50
2022-07-27T10:26:41.896Z,10.60
2022-07-27T10:29:19.313Z,4.80
2022-07-27T10:31:52.515Z,6.53
2022-07-27T10:34:40.212Z,7.33
2022-07-27T10:37:28.227Z,10.70
2022-07-27T10:40:17.274Z,6.55
2022-07-27T10:42:51.892Z,7.13
2022-07-27T10:45:22.191Z,8.13
2022-07-27T10:47:52.270Z,11.43
2022-07-27T10:50:24.102Z,8.68
2022-07-27T10:52:56.128Z,8.73
2022-07-27T10:55:36.465Z,11.43
2022-07-27T10:58:09.497Z,6.90
2022-07-27T11:00:54.676Z,6.65
2022-07-27T11:03:25.250Z,8.18
2022-07-27T11:06:21.778Z,9.07
2022-07-27T11:09:21.388Z,4.10
2022-07-27T11:11:41.648Z,5.00
2022-07-27T11:14:11.472Z,4.95
2022-07-27T11:16:54.505Z,10.57
2022-07-27T11:19:24.978Z,8.32
2022-07-27T11:21:55.146Z,4.55
2022-07-27T11:24:23.604Z,6.57
2022-07-27T11:26:52.337Z,9.45
2022-07-27T11:29:24.291Z,8.98
2022-07-27T11:31:58.733Z,5.43
2022-07-27T11:34:33.752Z,6.40
2022-07-27T11:37:03.038Z,5.30
2022-07-27T11:42:21.851Z,4.38
2022-07-27T11:44:52.827Z,7.80
2022-07-27T11:47:24.249Z,5.18
2022-07-27T11:49:52.178Z,5.07
2022-07-27T11:52:19.427Z,6.20
2022-07-27T11:54:52.219Z,2.75
2022-07-27T11:57:20.753Z,4.22
2022-07-27T11:59:48.633Z,4.88
2022-07-27T12:02:18.349Z,3.97
2022-07-27T12:04:47.826Z,5.43
2022-07-27T12:07:27.818Z,4.45
2022-07-27T12:09:58.099Z,8.02
2022-07-27T12:12:27.429Z,7.53
2022-07-27T12:15:11.817Z,8.82
2022-07-27T12:17:57.382Z,6.88
2022-07-27T12:20:33.104Z,4.97
2022-07-27T12:23:06.547Z,4.03
2022-07-27T12:25:35.314Z,5.32
2022-07-27T12:28:07.384Z,3.38
2022-07-27T12:30:37.257Z,4.80
2022-07-27T12:33:08.240Z,6.15
2022-07-27T12:35:47.011Z,4.70
2022-07-27T12:38:14.457Z,4.70
2022-07-27T12:40:48.358Z,8.63
2022-07-27T12:43:18.215Z,3.63
2022-07-27T12:45:46.452Z,3.30
2022-07-27T12:48:17.456Z,8.38
2022-07-27T12:50:48.180Z,4.22
2022-07-27T12:53:16.932Z,6.07
2022-07-27T12:55:47.182Z,5.88
2022-07-27T12:58:14.999Z,8.57
2022-07-27T13:00:42.259Z,3.42
2022-07-27T13:03:09.892Z,5.47
2022-07-27T13:05:37.218Z,4.57
2022-07-27T13:08:05.238Z,3.92
2022-07-27T13:10:32.558Z,4.50
2022-07-27T13:13:00.188Z,4.70
2022-07-27T13:15:27.429Z,4.75
2022-07-27T13:17:54.540Z,6.00
2022-07-27T13:20:21.933Z,2.30
2022-07-27T13:22:49.473Z,1.85
2022-07-27T13:25:17.700Z,3.45
2022-07-27T13:27:46.435Z,4.82
2022-07-27T13:30:15.029Z,2.45
2022-07-27T13:32:42.945Z,4.32
2022-07-27T13:35:14.169Z,2.15
2022-07-27T13:37:41.678Z,9.23
2022-07-27T13:40:09.976Z,1.83
2022-07-27T13:42:37.727Z,5.07
2022-07-27T13:45:10.298Z,2.17
2022-07-27T13:47:40.053Z,2.87
2022-07-27T13:50:16.725Z,7.18
2022-07-27T13:52:46.783Z,3.58
2022-07-27T13:55:18.136Z,2.42
2022-07-27T13:57:46.592Z,4.05
2022-07-27T14:00:15.210Z,1.83
2022-07-27T14:02:43.338Z,2.05
2022-07-27T14:05:14.125Z,5.05
2022-07-27T14:07:43.287Z,2.92
2022-07-27T14:10:30.518Z,4.93
2022-07-27T14:13:07.807Z,6.53
2022-07-27T14:15:54.297Z,6.10
2022-07-27T14:18:26.101Z,3.67
2022-07-27T14:20:54.220Z,4.38
2022-07-27T14:23:21.478Z,6.43
2022-07-27T14:25:48.815Z,6.63
2022-07-27T14:28:16.280Z,1.70
2022-07-27T14:30:43.578Z,2.92
2022-07-27T14:33:10.800Z,4.47
2022-07-27T14:35:40.706Z,5.50
2022-07-27T14:38:09.603Z,6.50
2022-07-27T14:40:37.903Z,5.07
2022-07-27T14:43:06.334Z,2.30
2022-07-27T14:45:44.542Z,4.13
2022-07-27T14:48:25.351Z,6.60
2022-07-27T14:51:00.300Z,5.65
2022-07-27T14:53:27.712Z,2.38
2022-07-27T14:55:54.754Z,3.40
2022-07-27T14:58:21.995Z,3.40
2022-07-27T15:00:49.456Z,3.58
2022-07-27T15:03:16.579Z,3.97
2022-07-27T15:05:50.492Z,3.15
2022-07-27T15:10:47.232Z,3.72
2022-07-27T15:13:14.918Z,4.28
2022-07-27T15:15:42.450Z,1.33
2022-07-27T15:18:09.722Z,3.85
2022-07-27T15:20:36.770Z,6.90
2022-07-27T15:23:04.379Z,3.97
2022-07-27T15:25:31.476Z,4.80
2022-07-27T15:27:58.733Z,3.67
2022-07-27T15:30:25.998Z,6.50
2022-07-27T15:32:53.225Z,4.15
2022-07-27T15:35:20.331Z,4.05
2022-07-27T15:37:53.958Z,6.95
2022-07-27T15:40:37.460Z,6.40
2022-07-27T15:43:10.909Z,8.60
2022-07-27T15:45:40.317Z,9.15
2022-07-27T15:48:09.752Z,7.20
2022-07-27T15:50:39.099Z,6.05
2022-07-27T15:53:06.735Z,6.53
2022-07-27T15:55:35.376Z,5.50
2022-07-27T15:58:03.625Z,4.15
2022-07-27T16:00:34.184Z,5.68
2022-07-27T16:03:05.749Z,3.60
2022-07-27T16:05:33.309Z,6.90
2022-07-27T16:08:00.393Z,11.57
2022-07-27T16:10:29.885Z,7.47
2022-07-27T16:12:57.421Z,9.07
2022-07-27T16:15:44.559Z,62.97
2022-07-27T16:18:12.115Z,10.40
2022-07-27T16:20:39.427Z,3.63
2022-07-27T16:23:17.610Z,5.03
2022-07-27T16:26:03.313Z,5.22
2022-07-27T16:28:33.516Z,4.43
2022-07-27T16:31:00.956Z,8.55
2022-07-27T16:33:28.091Z,3.55
2022-07-27T16:35:55.123Z,5.60
2022-07-27T16:38:22.533Z,3.50
2022-07-27T16:40:49.618Z,7.05
2022-07-27T16:43:16.904Z,5.75
2022-07-27T16:45:44.132Z,5.35
2022-07-27T16:48:12.502Z,15.95
2022-07-27T16:50:39.531Z,10.15
2022-07-27T16:53:07.259Z,11.27
2022-07-27T16:55:34.309Z,21.63
2022-07-27T16:58:01.385Z,7.88
2022-07-27T17:00:28.704Z,7.55
2022-07-27T17:02:55.794Z,5.10
2022-07-27T17:05:23.343Z,5.13
2022-07-27T17:07:52.410Z,11.20
2022-07-27T17:10:26.897Z,7.00
2022-07-27T17:12:55.752Z,5.60
2022-07-27T17:15:25.249Z,4.75
2022-07-27T17:17:53.900Z,6.68
2022-07-27T17:20:32.901Z,6.10
2022-07-27T17:23:03.926Z,8.35
2022-07-27T17:25:31.195Z,8.68
2022-07-27T17:27:58.479Z,7.60
2022-07-27T17:30:25.563Z,15.00
2022-07-27T17:32:53.491Z,11.38
2022-07-27T17:35:20.629Z,10.73
2022-07-27T17:38:05.661Z,9.30
2022-07-27T17:40:34.192Z,10.48
2022-07-27T17:43:01.528Z,11.80
2022-07-27T17:45:28.633Z,12.80
2022-07-27T17:47:55.966Z,10.85
2022-07-27T17:50:23.146Z,7.10
2022-07-27T17:52:50.347Z,7.82
2022-07-27T17:55:17.638Z,4.25
2022-07-27T17:57:45.381Z,5.93
2022-07-27T18:00:13.175Z,10.25
2022-07-27T18:02:41.933Z,7.03
2022-07-27T18:05:09.113Z,49.33
2022-07-27T18:07:37.839Z,197.05
2022-07-27T18:10:08.415Z,132.55
2022-07-27T18:12:35.853Z,59.92
2022-07-27T18:15:22.191Z,109.32
2022-07-27T18:17:49.859Z,70.30
2022-07-27T18:20:16.876Z,46.67
2022-07-27T18:22:44.180Z,60.30
2022-07-27T18:25:13.088Z,75.25
2022-07-27T18:27:40.927Z,61.22
2022-07-27T18:30:08.541Z,42.67
2022-07-27T18:32:36.051Z,56.22
2022-07-27T18:35:05.346Z,56.45
2022-07-27T18:37:32.501Z,37.47
2022-07-27T18:39:59.823Z,39.30
2022-07-27T18:42:26.976Z,40.88
2022-07-27T18:44:54.418Z,28.15
2022-07-27T18:47:21.888Z,30.90
2022-07-27T18:49:49.026Z,44.60
2022-07-27T18:52:16.519Z,29.88
2022-07-27T18:54:43.936Z,65.18
2022-07-27T18:57:11.021Z,81.05
2022-07-27T18:59:41.045Z,73.50
2022-07-27T19:02:09.312Z,90.15
2022-07-27T19:04:36.706Z,39.97
2022-07-27T19:07:06.394Z,20.08
2022-07-27T19:09:34.984Z,25.75
2022-07-27T19:12:05.965Z,23.70
2022-07-27T19:14:37.005Z,31.88
2022-07-27T19:17:05.138Z,31.75
2022-07-27T19:19:32.480Z,28.75
2022-07-27T19:22:00.239Z,34.75
2022-07-27T19:24:27.249Z,27.67
2022-07-27T19:26:54.280Z,30.15
2022-07-27T19:29:22.771Z,71.47
2022-07-27T19:31:50.799Z,40.80
2022-07-27T19:34:19.200Z,43.42
2022-07-27T19:36:46.504Z,58.10
2022-07-27T19:39:13.738Z,25.20
2022-07-27T19:41:41.317Z,33.13
2022-07-27T19:44:08.650Z,26.45
2022-07-27T19:46:36.157Z,25.23
2022-07-27T19:49:03.395Z,23.02
2022-07-27T19:51:30.727Z,25.48
2022-07-27T19:53:57.877Z,22.60
2022-07-27T19:56:24.950Z,19.35
2022-07-27T19:58:52.307Z,18.45
2022-07-27T20:01:19.541Z,18.60
2022-07-27T20:03:53.284Z,24.70
2022-07-27T20:06:26.101Z,20.38
2022-07-27T20:08:59.654Z,24.88
2022-07-27T20:11:29.989Z,20.03
2022-07-27T20:14:02.620Z,23.40
2022-07-27T20:16:32.215Z,26.58
2022-07-27T20:19:00.202Z,35.78
2022-07-27T20:21:27.240Z,41.60
2022-07-27T20:23:54.791Z,22.58
2022-07-27T20:26:21.985Z,15.00
2022-07-27T20:28:50.161Z,13.27
2022-07-27T20:31:18.471Z,16.85
2022-07-27T20:33:45.996Z,23.50
2022-07-27T20:36:13.309Z,19.30
2022-07-27T20:38:41.713Z,19.30
2022-07-27T20:41:08.719Z,16.33
2022-07-27T20:43:35.889Z,10.35
2022-07-27T20:46:03.932Z,9.45
2022-07-27T20:48:31.154Z,9.93
2022-07-27T20:50:59.554Z,5.15
2022-07-27T20:53:27.032Z,10.63
2022-07-27T20:55:54.104Z,10.90
2022-07-27T20:58:21.301Z,20.60
2022-07-27T21:00:48.626Z,28.27
2022-07-27T21:03:15.697Z,19.48
2022-07-27T21:05:43.030Z,20.45
2022-07-27T21:08:10.431Z,23.20
2022-07-27T21:10:37.491Z,20.10
2022-07-27T21:13:04.955Z,18.80
2022-07-27T21:15:33.759Z,15.38
2022-07-27T21:18:02.252Z,15.27
2022-07-27T21:20:29.635Z,17.10
2022-07-27T21:23:15.727Z,12.27
2022-07-27T21:25:44.133Z,8.80
2022-07-27T21:28:16.479Z,11.43
2022-07-27T21:30:46.234Z,10.82
2022-07-27T21:33:13.719Z,14.30
2022-07-27T21:35:40.744Z,22.25
2022-07-27T21:38:07.903Z,27.95
2022-07-27T21:40:35.206Z,35.33
2022-07-27T21:43:02.231Z,33.22
2022-07-27T21:45:29.285Z,33.08
2022-07-27T21:47:58.143Z,37.85
2022-07-27T21:50:25.433Z,23.98
2022-07-27T21:52:53.113Z,26.90
2022-07-27T21:55:23.268Z,27.63
2022-07-27T21:57:51.469Z,16.95
2022-07-27T22:00:29.479Z,17.75
2022-07-27T22:02:57.208Z,15.88
2022-07-27T22:05:24.532Z,19.50
2022-07-27T22:07:53.057Z,38.65
2022-07-27T22:10:20.589Z,133.32
2022-07-27T22:12:47.670Z,36.05
2022-07-27T22:15:14.732Z,18.92
2022-07-27T22:17:46.214Z,11.93
2022-07-27T22:22:45.722Z,12.25
2022-07-27T22:25:12.889Z,20.27
2022-07-27T22:27:40.051Z,36.88
2022-07-27T22:30:08.338Z,27.55
2022-07-27T22:32:35.754Z,11.73
2022-07-27T22:35:03.544Z,11.35
2022-07-27T22:37:30.820Z,12.48
2022-07-27T22:39:57.842Z,8.02
2022-07-27T22:42:24.976Z,9.35
2022-07-27T22:44:52.217Z,7.95
2022-07-27T22:47:19.306Z,10.63
2022-07-27T22:49:46.291Z,15.35
2022-07-27T22:52:13.586Z,9.52
2022-07-27T22:54:41.978Z,9.85
2022-07-27T22:57:09.158Z,15.73
2022-07-27T22:59:37.535Z,8.82
2022-07-27T23:02:05.386Z,8.02
2022-07-27T23:04:32.687Z,11.63
2022-07-27T23:07:00.520Z,10.02
2022-07-27T23:09:27.539Z,10.80
2022-07-27T23:11:54.690Z,14.70
2022-07-27T23:14:25.742Z,13.57
2022-07-27T23:16:53.128Z,11.35
2022-07-27T23:19:20.228Z,10.85
2022-07-27T23:21:47.507Z,8.23
2022-07-27T23:24:15.380Z,13.57
2022-07-27T23:26:43.180Z,9.75
2022-07-27T23:29:10.660Z,19.55
2022-07-27T23:31:38.014Z,7.72
2022-07-27T23:34:05.357Z,7.28
2022-07-27T23:36:32.735Z,11.45
2022-07-27T23:38:59.750Z,11.27
2022-07-27T23:41:27.020Z,10.25
2022-07-27T23:43:54.237Z,8.82
2022-07-27T23:46:21.244Z,9.13
2022-07-27T23:48:48.390Z,9.32
2022-07-27T23:51:20.224Z,11.05
2022-07-27T23:53:48.118Z,10.50
2022-07-27T23:56:15.338Z,11.50
2022-07-27T23:58:43.468Z,8.85
